Latest Weather Observations for Launceston Airport

IDT60801

Issued at 8:05 am EST Tuesday 29 July 2014 (issued every 30 minutes, with the page automatically refreshed every 10 minutes)

About weather observations | Map of weather stations | Latest weather observations for TAS | Other Formats
Station Details ID: 091311 Name: LAUNCESTON AIRPORT Lat: -41.55 Lon: 147.21 Height: 166.9 m
Data from the previous 72 hours. | See also: Recent months at Launceston Airport
Date/Time
EST
Temp
°C
App
Temp
°C
Dew
Point
Rel
Hum
%
Delta-T
°C
Wind Press
QNH
hPa
Press
MSL
hPa
Rain
since 9 am
mm
Dir
 
Spd
km/h
Gust
km/h
Spd
kts
Gust
kts
29/08:00am 10.9 2.6 10.1 95 0.4 NNW 44 59 24 32 995.6 995.9 19.4
29/07:52am 10.8 3.0 9.9 94 0.5 NNW 41 57 22 31 995.8 - 18.2
29/07:49am 10.8 3.4 9.9 94 0.5 NNW 39 57 21 31 996.0 - 18.0
29/07:30am 10.7 2.0 9.9 95 0.4 NNW 46 63 25 34 996.5 - 15.2
29/07:24am 10.7 2.4 9.9 95 0.4 NNW 44 63 24 34 996.4 - 14.6
29/07:07am 10.7 2.5 9.8 94 0.5 NNW 43 57 23 31 996.8 - 14.2
29/07:06am 10.7 2.5 9.8 94 0.5 NNW 43 57 23 31 996.8 - 14.0
29/07:01am 10.8 3.4 9.7 93 0.6 NNW 39 57 21 31 997.0 - 14.0
29/07:00am 10.8 3.4 9.7 93 0.6 NNW 39 54 21 29 997.0 997.4 14.0
29/06:31am 10.7 2.5 9.8 94 0.5 NNW 43 61 23 33 997.3 - 11.8
29/06:30am 10.7 2.3 9.8 94 0.5 NNW 44 61 24 33 997.3 - 11.8
29/06:06am 10.7 1.6 9.8 94 0.5 NNW 48 70 26 38 997.2 - 9.6
29/06:01am 10.6 2.4 9.7 94 0.5 NNW 43 61 23 33 997.2 - 9.4
29/06:00am 10.6 2.4 9.7 94 0.5 NNW 43 56 23 30 997.2 997.6 9.4
29/05:56am 10.6 3.1 9.5 93 0.6 NNW 39 56 21 30 997.4 - 9.4
29/05:41am 10.2 3.0 9.0 92 0.6 NNW 37 56 20 30 997.7 - 8.8
29/05:33am 10.3 1.9 9.1 92 0.6 NNW 43 59 23 32 998.1 - 8.8
29/05:30am 10.4 1.8 9.0 91 0.7 NNW 44 59 24 32 998.1 - 8.8
29/05:25am 10.3 1.8 9.1 92 0.6 N 44 63 24 34 998.1 - 8.8
29/05:06am 10.6 1.8 9.5 93 0.6 NNW 46 65 25 35 998.6 - 7.8
29/05:00am 10.6 1.4 9.4 92 0.6 NNW 48 65 26 35 998.6 999.0 7.6
29/04:51am 10.6 3.1 9.5 93 0.6 NNW 39 63 21 34 998.7 - 7.0
29/04:40am 10.6 2.3 9.4 92 0.6 NNW 43 56 23 30 998.8 - 6.2
29/04:30am 10.6 3.1 9.4 92 0.6 NNW 39 52 21 28 999.0 - 5.8
29/04:20am 10.4 2.5 9.2 92 0.6 NNW 41 54 22 29 999.2 - 5.8
29/04:03am 10.1 2.5 9.0 93 0.5 NNW 39 52 21 28 999.6 - 5.6
29/04:00am 10.1 2.1 8.9 92 0.6 NNW 41 57 22 31 999.6 999.9 5.6
29/03:46am 10.2 1.8 9.0 92 0.6 NNW 43 57 23 31 999.7 - 5.6
29/03:30am 10.0 2.7 8.9 93 0.5 NNW 37 48 20 26 1000.2 - 5.4
29/03:29am 10.0 2.7 8.9 93 0.5 NNW 37 48 20 26 1000.2 - 5.4
29/03:00am 9.9 3.0 8.7 92 0.6 N 35 46 19 25 1000.8 1001.1 5.4
29/02:58am 9.8 2.8 8.6 92 0.6 N 35 48 19 26 1000.9 - 5.4
29/02:38am 9.6 3.1 8.8 95 0.4 N 33 44 18 24 1001.4 - 5.0
29/02:30am 9.5 3.5 8.7 95 0.4 N 30 35 16 19 1001.6 - 4.8
29/02:00am 9.4 2.7 8.0 91 0.7 N 33 43 18 23 1002.3 1002.7 4.8
29/01:40am 9.3 2.7 7.7 90 0.8 N 32 41 17 22 1002.4 - 4.8
29/01:30am 9.2 2.6 7.8 91 0.7 N 32 41 17 22 1002.3 - 4.8
29/01:00am 9.0 3.2 8.1 94 0.4 N 28 39 15 21 1002.6 1003.0 4.8
29/12:45am 8.9 3.1 8.0 94 0.4 N 28 35 15 19 1002.8 - 4.8
29/12:31am 9.1 4.2 8.5 96 0.3 N 24 35 13 19 1003.0 - 4.8
29/12:30am 9.0 4.1 8.4 96 0.3 N 24 35 13 19 1003.0 - 4.8
29/12:23am 8.9 4.0 8.3 96 0.3 N 24 35 13 19 1003.0 - 4.8
29/12:00am 9.4 4.2 8.8 96 0.3 N 26 33 14 18 1003.2 1003.6 4.8
 
Date/Time
EST
Temp
°C
App
Temp
°C
Dew
Point
Rel
Hum
%
Delta-T
°C
Wind Press
QNH
hPa
Press
MSL
hPa
Rain
since 9 am
mm
Dir
 
Spd
km/h
Gust
km/h
Spd
kts
Gust
kts
28/11:30pm 9.7 4.6 9.1 96 0.3 NNW 26 37 14 20 1004.1 - 4.2
28/11:00pm 9.7 4.9 8.9 95 0.4 N 24 37 13 20 1004.5 1004.9 4.0
28/10:30pm 9.7 4.1 8.8 94 0.4 N 28 35 15 19 1004.7 - 4.0
28/10:00pm 9.6 4.3 8.4 92 0.6 N 26 33 14 18 1005.0 1005.4 4.0
28/09:30pm 9.4 4.0 7.8 90 0.8 N 26 32 14 17 1005.4 - 4.0
28/09:00pm 8.8 2.9 7.4 91 0.7 N 28 39 15 21 1005.4 1005.8 4.0
28/08:30pm 8.8 4.5 7.7 93 0.5 N 20 28 11 15 1005.7 - 3.8
28/08:00pm 8.7 3.5 7.2 90 0.7 N 24 33 13 18 1005.9 1006.2 3.8
28/07:30pm 9.4 3.8 7.3 87 1.0 NW 26 37 14 20 1006.1 - 3.6
28/07:01pm 9.7 3.4 7.5 86 1.1 WNW 30 43 16 23 1005.9 - 2.2
28/07:00pm 9.6 3.3 7.4 86 1.1 NW 30 39 16 21 1005.9 1006.2 2.2
28/06:51pm 9.8 3.0 7.7 87 1.0 NW 33 52 18 28 1005.5 - 1.8
28/06:41pm 10.3 1.8 8.6 89 0.8 NNW 43 57 23 31 1006.0 - 1.2
28/06:32pm 10.8 2.6 9.7 93 0.6 NNW 43 56 23 30 1005.7 - 0.4
28/06:30pm 11.0 2.8 9.8 92 0.6 NNW 43 56 23 30 1005.5 - 0.2
28/06:25pm 11.1 2.9 9.7 91 0.7 NNW 43 54 23 29 1005.4 - 0.2
28/06:22pm 11.1 3.2 9.5 90 0.8 N 41 54 22 29 1005.2 - 0.2
28/06:00pm 10.9 4.2 9.5 91 0.7 N 35 46 19 25 1004.9 1005.3 0.2
28/05:30pm 10.9 4.7 9.5 91 0.7 N 32 43 17 23 1005.1 - 0.2
28/05:27pm 11.0 4.7 9.6 91 0.7 N 33 43 18 23 1005.1 - 0.2
28/05:00pm 10.7 4.2 9.0 89 0.9 N 33 44 18 24 1005.1 1005.5 0.2
28/04:30pm 10.9 3.8 8.0 82 1.4 N 35 46 19 25 1005.2 - 0.2
28/04:00pm 11.6 5.0 7.9 78 1.8 N 32 43 17 23 1005.3 1005.7 0.2
28/03:30pm 11.7 5.7 8.6 81 1.5 N 30 43 16 23 1005.5 - 0.2
28/03:00pm 12.0 5.3 8.1 77 1.9 N 33 44 18 24 1006.0 1006.3 0.0
28/02:30pm 11.9 4.6 8.6 80 1.7 N 37 54 20 29 1006.2 - 0.0
28/02:00pm 12.0 5.4 7.7 75 2.1 N 32 43 17 23 1006.3 1006.6 0.0
28/01:50pm 12.8 6.3 9.1 78 1.9 N 33 44 18 24 1006.2 - 0.0
28/01:30pm 12.7 8.2 10.1 84 1.3 N 24 32 13 17 1006.3 - 0.0
28/01:10pm 11.8 5.8 10.0 89 0.9 NNW 32 44 17 24 1006.5 - 0.0
28/01:08pm 11.8 5.8 10.0 89 0.9 NNW 32 44 17 24 1006.5 - 0.0
28/01:00pm 11.9 5.9 10.1 89 0.9 NNW 32 43 17 23 1006.6 1007.0 0.0
28/12:58pm 11.9 5.9 10.1 89 0.9 NNW 32 43 17 23 1006.7 - 0.0
28/12:30pm 12.1 5.4 9.8 86 1.2 NNW 35 50 19 27 1007.2 - 0.0
28/12:00pm 12.4 6.1 9.6 83 1.4 NNW 33 43 18 23 1007.8 1008.2 0.0
28/11:36am 11.7 4.9 9.1 84 1.3 N 35 46 19 25 1008.2 - 0.0
28/11:30am 12.9 6.3 9.9 82 1.6 N 35 44 19 24 1008.4 - 0.0
28/11:09am 11.7 5.9 9.4 86 1.2 N 30 43 16 23 1008.6 - 0.0
28/11:00am 11.9 7.3 9.6 86 1.2 N 24 39 13 21 1008.8 1009.2 0.0
28/10:30am 10.6 5.6 8.2 85 1.2 N 24 32 13 17 1009.3 - 0.0
28/10:00am 10.3 4.5 8.1 86 1.1 N 28 35 15 19 1009.3 1009.7 0.0
28/09:30am 10.7 5.5 8.8 88 0.9 N 26 33 14 18 1009.2 - 0.0
28/09:00am 9.9 5.1 8.7 92 0.6 NNW 24 30 13 16 1009.4 1009.8 2.2
28/08:30am 9.8 5.7 8.7 93 0.5 N 20 26 11 14 1009.3 - 2.2
28/08:00am 10.5 5.8 9.1 91 0.7 NNW 24 30 13 16 1009.2 1009.6 2.2
28/07:30am 10.9 5.6 10.0 94 0.5 NNW 28 39 15 21 1009.4 - 2.0
28/07:00am 11.1 5.8 9.7 91 0.7 NNW 28 33 15 18 1009.5 1009.9 1.8
28/06:30am 11.2 5.4 9.6 90 0.8 N 30 39 16 21 1009.6 - 1.4
28/06:00am 11.2 5.4 9.6 90 0.8 N 30 37 16 20 1009.3 1009.7 1.4
28/05:30am 11.1 5.3 9.5 90 0.8 N 30 37 16 20 1009.5 - 1.4
28/05:00am 11.0 5.6 9.6 91 0.7 N 28 35 15 19 1009.6 1010.0 1.4
28/04:30am 10.8 5.4 9.4 91 0.7 N 28 37 15 20 1009.8 - 1.4
28/04:00am 10.6 4.7 9.2 91 0.7 N 30 37 16 20 1010.1 1010.5 1.4
28/03:30am 10.8 4.7 9.6 92 0.6 N 32 39 17 21 1010.4 - 1.4
28/03:00am 10.9 6.7 9.7 92 0.6 NNW 22 33 12 18 1011.0 1011.4 1.4
28/02:30am 10.8 6.2 9.6 92 0.6 NNW 24 30 13 16 1011.4 - 1.4
28/02:00am 10.7 6.1 9.6 93 0.6 NNW 24 33 13 18 1011.7 1012.2 1.4
28/01:30am 10.6 6.0 9.7 94 0.5 NNW 24 30 13 16 1012.1 - 1.4
28/01:02am 10.7 6.2 9.9 95 0.4 NNW 24 32 13 17 1012.3 - 1.4
28/01:00am 10.7 6.2 9.9 95 0.4 NNW 24 30 13 16 1012.4 1012.8 1.4
28/12:30am 10.6 7.0 9.8 95 0.4 NNW 19 30 10 16 1012.8 - 1.2
28/12:18am 10.5 7.6 9.7 95 0.4 NW 15 22 8 12 1013.0 - 1.2
28/12:03am 10.4 6.8 9.8 96 0.3 N 19 24 10 13 1013.1 - 0.4
28/12:00am 10.4 6.8 9.8 96 0.3 NNW 19 24 10 13 1013.2 1013.6 0.4
 
Date/Time
EST
Temp
°C
App
Temp
°C
Dew
Point
Rel
Hum
%
Delta-T
°C
Wind Press
QNH
hPa
Press
MSL
hPa
Rain
since 9 am
mm
Dir
 
Spd
km/h
Gust
km/h
Spd
kts
Gust
kts
27/11:30pm 10.2 6.5 9.4 95 0.4 NNW 19 20 10 11 1013.4 - 0.2
27/11:00pm 10.2 7.2 9.4 95 0.4 NNW 15 20 8 11 1013.6 1014.0 0.2
27/10:30pm 10.2 5.5 9.4 95 0.4 NNW 24 30 13 16 1014.0 - 0.0
27/10:00pm 10.4 5.7 9.3 93 0.6 NNW 24 32 13 17 1014.5 1014.9 0.0
27/09:30pm 10.5 5.3 8.9 90 0.8 NNW 26 33 14 18 1014.6 - 0.0
27/09:01pm 10.4 6.0 8.8 90 0.8 NNW 22 32 12 17 1014.8 - 0.0
27/09:00pm 10.4 6.0 8.8 90 0.8 NNW 22 32 12 17 1014.9 1015.3 0.0
27/08:30pm 10.3 5.6 9.1 92 0.6 NNW 24 32 13 17 1014.9 - 0.0
27/08:00pm 10.4 4.8 8.7 89 0.8 NNW 28 35 15 19 1015.0 1015.4 0.0
27/07:34pm 10.3 5.0 8.6 89 0.8 N 26 32 14 17 1015.2 - 0.0
27/07:30pm 10.3 5.0 8.6 89 0.8 N 26 33 14 18 1015.1 - 0.0
27/07:00pm 10.3 6.2 8.6 89 0.8 N 20 26 11 14 1015.4 1015.8 0.0
27/06:30pm 10.4 5.5 8.3 87 1.0 NNW 24 37 13 20 1015.6 - 0.0
27/06:00pm 10.2 5.9 8.0 86 1.1 NNW 20 26 11 14 1015.6 1016.0 0.0
27/05:30pm 10.3 5.3 8.1 86 1.1 N 24 33 13 18 1015.6 - 0.0
27/05:00pm 10.4 5.3 7.8 84 1.3 N 24 30 13 16 1015.6 1016.0 0.0
27/04:30pm 10.7 5.3 7.9 83 1.4 NNW 26 35 14 19 1015.5 - 0.0
27/04:00pm 11.3 6.5 8.7 84 1.3 NNW 24 32 13 17 1015.9 1016.3 0.0
27/03:30pm 11.8 7.3 8.5 80 1.6 N 22 30 12 16 1015.8 - 0.0
27/03:00pm 11.0 6.5 8.4 84 1.3 N 22 30 12 16 1016.2 1016.6 0.0
27/02:30pm 11.4 6.1 8.3 81 1.5 N 26 32 14 17 1016.7 - 0.0
27/02:00pm 11.1 6.1 8.1 82 1.5 NNW 24 32 13 17 1017.0 1017.5 0.0
27/01:30pm 10.9 5.4 7.6 80 1.6 NNW 26 32 14 17 1017.4 - 0.0
27/01:00pm 10.5 5.3 7.4 81 1.5 NNW 24 30 13 16 1018.0 1018.5 0.0
27/12:30pm 9.4 5.1 7.0 85 1.1 N 19 26 10 14 1018.7 - 0.0
27/12:28pm 9.5 5.3 7.3 86 1.1 N 19 26 10 14 1018.7 - 0.0
27/12:00pm 8.8 4.9 7.1 89 0.8 N 17 24 9 13 1019.1 1019.5 0.0
27/11:59am 8.5 4.5 6.5 87 0.9 N 17 28 9 15 1019.1 - 0.0
27/11:40am 8.6 5.3 8.0 96 0.3 N 15 20 8 11 1019.3 - 0.0
27/11:30am 8.2 5.2 7.8 97 0.2 N 13 17 7 9 1019.4 - 0.0
27/11:18am 7.4 4.3 7.1 98 0.1 N 13 17 7 9 1019.6 - 0.0
27/11:15am 7.6 4.5 7.3 98 0.1 N 13 17 7 9 1019.7 - 0.0
27/11:08am 8.2 4.9 7.9 98 0.1 NNW 15 17 8 9 1019.9 - 0.0
27/11:05am 8.2 4.9 7.9 98 0.1 NNW 15 20 8 11 1019.9 - 0.0
27/11:00am 8.1 4.7 7.8 98 0.1 NNW 15 20 8 11 1020.0 1020.4 0.0
27/10:30am 5.4 3.0 5.1 98 0.1 N 7 11 4 6 1020.6 - 0.0
27/10:00am 3.9 0.8 3.6 98 0.1 N 9 11 5 6 1021.0 1021.4 0.0
27/09:30am 4.1 2.0 3.8 98 0.1 NNE 4 9 2 5 1021.3 - 0.0
27/09:29am 4.2 2.5 3.9 98 0.1 NNE 2 9 1 5 1021.3 - 0.0
27/09:00am 3.4 1.9 3.1 98 0.1 CALM 0 0 0 0 1021.3 1021.7 0.2
27/08:30am 2.2 0.5 1.9 98 0.1 CALM 0 0 0 0 1021.0 - 0.2
27/08:00am 1.4 -0.4 1.3 99 0.0 CALM 0 0 0 0 1020.9 1021.3 0.2
27/07:55am 1.0 -0.8 0.9 99 0.0 CALM 0 0 0 0 1020.9 - 0.2
27/07:34am 0.4 -1.5 0.3 99 0.0 CALM 0 0 0 0 1020.7 - 0.2
27/07:30am 0.6 -1.3 0.5 99 0.0 CALM 0 0 0 0 1020.7 - 0.2
27/07:20am 0.4 -1.5 0.3 99 0.0 CALM 0 0 0 0 1020.6 - 0.2
27/07:00am 0.7 -2.5 0.6 99 0.0 S 7 7 4 4 1020.7 1021.1 0.2
27/06:58am 0.6 -2.4 0.5 99 0.0 S 6 7 3 4 1020.7 - 0.2
27/06:52am 0.5 -1.8 0.4 99 0.0 SE 2 7 1 4 1020.6 - 0.2
27/06:42am 0.8 -1.1 0.7 99 0.0 CALM 0 0 0 0 1020.5 - 0.2
27/06:30am 0.7 -1.2 0.6 99 0.0 CALM 0 0 0 0 1020.5 - 0.2
27/06:28am 0.7 -1.2 0.4 98 0.1 CALM 0 0 0 0 1020.5 - 0.2
27/06:12am 1.3 -0.5 1.0 98 0.1 CALM 0 0 0 0 1020.5 - 0.2
27/06:00am 1.3 -0.5 1.0 98 0.1 CALM 0 0 0 0 1020.5 1020.9 0.2
27/05:30am 1.7 -0.1 1.4 98 0.1 CALM 0 0 0 0 1020.5 - 0.2
27/05:23am 1.8 0.0 1.5 98 0.1 CALM 0 6 0 3 1020.5 - 0.2
27/05:00am 2.0 -1.4 1.7 98 0.1 SW 9 13 5 7 1020.6 1021.0 0.2
27/04:57am 2.0 -1.4 1.7 98 0.1 SW 9 13 5 7 1020.6 - 0.2
27/04:30am 2.5 -0.5 2.2 98 0.1 SSW 7 9 4 5 1020.6 - 0.2
27/04:02am 2.8 -0.9 2.5 98 0.1 SSW 11 13 6 7 1020.9 - 0.0
27/04:00am 2.8 -0.9 2.5 98 0.1 SSW 11 13 6 7 1020.9 1021.3 0.0
27/03:50am 2.6 -0.7 2.3 98 0.1 SSW 9 13 5 7 1020.8 - 0.0
27/03:30am 2.2 -0.8 1.9 98 0.1 S 7 11 4 6 1020.7 - 0.0
27/03:15am 2.5 0.1 2.2 98 0.1 S 4 7 2 4 1020.7 - 0.0
27/03:00am 2.8 -0.1 2.5 98 0.1 SSW 7 11 4 6 1020.6 1021.0 0.0
27/02:46am 3.0 -0.3 2.7 98 0.1 S 9 13 5 7 1020.9 - 0.0
27/02:37am 3.1 -0.1 2.8 98 0.1 S 9 11 5 6 1021.0 - 0.0
27/02:30am 2.9 0.0 2.6 98 0.1 S 7 9 4 5 1021.0 - 0.0
27/02:21am 2.8 -0.5 2.4 97 0.2 S 9 13 5 7 1021.1 - 0.0
27/02:15am 2.7 -1.4 2.3 97 0.2 SSW 13 20 7 11 1021.0 - 0.0
27/02:08am 3.0 -1.4 2.6 97 0.2 SW 15 20 8 11 1021.3 - 0.0
27/02:06am 3.1 -1.3 2.7 97 0.2 SSW 15 20 8 11 1021.4 - 0.0
27/02:00am 2.0 -1.5 1.4 96 0.2 SSW 9 15 5 8 1021.4 1021.9 0.0
27/01:59am 2.0 -1.1 1.4 96 0.2 SSW 7 15 4 8 1021.4 - 0.0
27/01:30am 4.7 3.4 4.3 97 0.2 CALM 0 0 0 0 1021.3 - 0.0
27/01:16am 3.3 1.7 2.7 96 0.2 CALM 0 4 0 2 1021.2 - 0.0
27/01:12am 5.5 4.4 5.1 97 0.2 CALM 0 4 0 2 1021.2 - 0.0
27/01:00am 5.3 4.1 4.7 96 0.3 CALM 0 0 0 0 1021.2 1021.6 0.0
27/12:54am 5.1 3.9 4.5 96 0.3 CALM 0 0 0 0 1021.2 - 0.0
27/12:30am 6.0 5.0 5.6 97 0.2 CALM 0 0 0 0 1021.4 - 0.0
27/12:15am 5.8 4.8 5.4 97 0.2 CALM 0 0 0 0 1021.5 - 0.0
27/12:00am 6.1 5.1 5.7 97 0.2 CALM 0 0 0 0 1021.5 1022.0 0.0
 
Date/Time
EST
Temp
°C
App
Temp
°C
Dew
Point
Rel
Hum
%
Delta-T
°C
Wind Press
QNH
hPa
Press
MSL
hPa
Rain
since 9 am
mm
Dir
 
Spd
km/h
Gust
km/h
Spd
kts
Gust
kts
26/11:51pm 5.6 4.5 5.0 96 0.3 CALM 0 0 0 0 1021.5 - 0.0
26/11:36pm 5.3 4.1 4.7 96 0.3 CALM 0 0 0 0 1021.6 - 0.0
26/11:35pm 5.6 4.5 5.0 96 0.3 CALM 0 0 0 0 1021.6 - 0.0
26/11:30pm 5.4 4.2 4.8 96 0.3 CALM 0 0 0 0 1021.7 - 0.0
26/11:20pm 5.7 4.6 5.0 95 0.3 CALM 0 0 0 0 1021.7 - 0.0
26/11:19pm 5.3 4.1 4.6 95 0.3 CALM 0 0 0 0 1021.7 - 0.0
26/11:18pm 5.4 4.2 4.7 95 0.3 CALM 0 0 0 0 1021.7 - 0.0
26/11:16pm 5.6 4.5 4.9 95 0.3 CALM 0 0 0 0 1021.7 - 0.0
26/11:00pm 6.0 5.0 5.4 96 0.3 CALM 0 0 0 0 1021.6 1022.1 0.0
26/10:42pm 6.0 4.6 5.4 96 0.3 WNW 2 7 1 4 1021.6 - 0.0
26/10:30pm 6.4 5.4 5.8 96 0.3 CALM 0 0 0 0 1021.5 - 0.0
26/10:11pm 5.5 3.0 4.8 95 0.3 N 7 9 4 5 1021.5 - 0.0
26/10:10pm 6.3 4.0 5.7 96 0.3 N 7 9 4 5 1021.5 - 0.0
26/10:02pm 7.1 5.9 6.5 96 0.3 N 2 7 1 4 1021.5 - 0.0
26/10:00pm 6.9 5.7 6.3 96 0.3 NNW 2 6 1 3 1021.5 1022.0 0.0
26/09:43pm 5.1 3.8 4.1 93 0.4 CALM 0 0 0 0 1021.6 - 0.0
26/09:30pm 5.6 4.0 4.4 92 0.5 NW 2 6 1 3 1021.4 - 0.0
26/09:00pm 6.6 5.6 5.4 92 0.5 CALM 0 6 0 3 1021.2 1021.6 0.0
26/08:30pm 7.4 6.5 6.0 91 0.6 CALM 0 0 0 0 1020.8 - 0.0
26/08:00pm 8.0 7.3 6.8 92 0.6 CALM 0 0 0 0 1020.7 1021.1 0.0
26/07:30pm 8.3 7.6 6.8 90 0.7 CALM 0 0 0 0 1020.8 - 0.0
26/07:00pm 8.7 8.0 6.8 88 0.9 CALM 0 0 0 0 1020.7 1021.1 0.0
26/06:30pm 9.0 8.2 6.4 84 1.2 CALM 0 0 0 0 1020.4 - 0.0
26/06:00pm 10.3 9.8 7.9 85 1.2 CALM 0 0 0 0 1020.2 1020.6 0.0
26/05:30pm 10.3 9.7 7.4 82 1.4 CALM 0 0 0 0 1020.1 - 0.0
26/05:00pm 11.9 11.5 8.2 78 1.8 CALM 0 0 0 0 1019.7 1020.1 0.0
26/04:30pm 12.6 12.1 7.9 73 2.3 CALM 0 0 0 0 1019.4 - 0.0
26/04:00pm 13.2 12.0 8.1 71 2.5 S 4 7 2 4 1019.2 1019.6 0.0
26/03:30pm 13.5 12.1 8.8 73 2.4 SSE 6 11 3 6 1019.2 - 0.0
26/03:00pm 13.4 11.6 9.3 76 2.1 SSW 9 15 5 8 1019.2 1019.6 0.0
26/02:30pm 13.7 11.6 9.7 77 2.1 S 11 17 6 9 1018.8 - 0.0
26/02:00pm 13.0 11.0 8.7 75 2.2 S 9 13 5 7 1018.9 1019.3 0.0
26/01:30pm 12.4 10.4 8.7 78 1.9 SSW 9 13 5 7 1019.1 - 0.0
26/01:00pm 12.2 9.8 8.5 78 1.8 SSW 11 13 6 7 1019.4 1019.8 0.0
26/12:30pm 12.8 11.4 9.4 80 1.7 SW 7 13 4 7 1019.7 - 0.0
26/12:00pm 12.4 10.5 8.9 79 1.8 WSW 9 11 5 6 1020.0 1020.4 0.0
26/11:30am 12.1 10.1 8.8 80 1.7 S 9 13 5 7 1020.2 - 0.0
26/11:00am 10.8 8.8 8.6 86 1.1 SE 9 11 5 6 1020.5 1020.9 0.0
26/10:30am 9.9 7.3 7.8 87 1.0 S 11 13 6 7 1020.6 - 0.0
26/10:00am 9.6 6.7 8.2 91 0.7 S 13 17 7 9 1020.6 1021.0 0.0
26/09:30am 8.7 6.0 7.5 92 0.6 S 11 17 6 9 1020.6 - 0.0
26/09:00am 7.8 5.4 7.1 95 0.3 SSW 9 11 5 6 1020.3 1020.7 10.2
26/08:30am 6.9 4.8 6.5 97 0.2 SSE 7 9 4 5 1020.3 - 10.2

Other Formats:

Comma delimited format used in spreadsheet applications
http://www.bom.gov.au/fwo/IDT60801/IDT60801.95966.axf

JavaScript Object Notation format (JSON) in row-major order
http://www.bom.gov.au/fwo/IDT60801/IDT60801.95966.json